createdAt,value
2023-03-05T00:01:55.635Z,98437.38
2023-03-05T00:04:00.591Z,98438.25
2023-03-05T00:06:05.651Z,98437.34
2023-03-05T00:08:10.478Z,98438.31
2023-03-05T00:10:17.883Z,98436.63
2023-03-05T00:12:22.642Z,98441.72
2023-03-05T00:14:27.643Z,98432.28
2023-03-05T00:16:33.043Z,98434.00
2023-03-05T00:18:41.186Z,98440.88
2023-03-05T00:20:46.208Z,98434.97
2023-03-05T00:22:50.930Z,98436.63
2023-03-05T00:24:55.962Z,98439.19
2023-03-05T00:27:00.995Z,98436.50
2023-03-05T00:29:06.527Z,98439.06
2023-03-05T00:31:11.371Z,98435.78
2023-03-05T00:33:16.721Z,98434.09
2023-03-05T00:35:23.892Z,98433.16
2023-03-05T00:37:28.743Z,98431.41
2023-03-05T00:39:33.679Z,98428.06
2023-03-05T00:41:38.496Z,98433.13
2023-03-05T00:43:43.382Z,98423.69
2023-03-05T00:45:48.167Z,98430.53
2023-03-05T00:47:52.996Z,98433.13
2023-03-05T00:49:57.797Z,98432.28
2023-03-05T00:52:05.186Z,98428.09
2023-03-05T00:54:10.221Z,98431.50
2023-03-05T00:56:15.152Z,98440.03
2023-03-05T00:58:20.202Z,98440.03
2023-03-05T01:00:25.102Z,98433.16
2023-03-05T01:02:30.026Z,98434.00
2023-03-05T01:04:36.725Z,98428.84
2023-03-05T01:06:46.274Z,98429.72
2023-03-05T01:08:54.569Z,98419.38
2023-03-05T01:10:59.668Z,98418.56
2023-03-05T01:13:04.734Z,98423.75
2023-03-05T01:15:09.785Z,98418.59
2023-03-05T01:17:14.724Z,98416.00
2023-03-05T01:19:19.746Z,98409.91
2023-03-05T01:21:24.784Z,98411.59
2023-03-05T01:23:29.996Z,98407.38
2023-03-05T01:25:37.421Z,98403.06
2023-03-05T01:27:42.248Z,98408.28
2023-03-05T01:29:47.155Z,98402.25
2023-03-05T01:31:52.028Z,98404.81
2023-03-05T01:33:57.654Z,98407.38
2023-03-05T01:36:02.470Z,98402.16
2023-03-05T01:38:07.306Z,98397.94
2023-03-05T01:40:15.049Z,98405.53
2023-03-05T01:42:22.521Z,98400.41
2023-03-05T01:44:29.842Z,98402.16
2023-03-05T01:46:39.801Z,98399.59
2023-03-05T01:48:44.569Z,98402.16
2023-03-05T01:50:49.866Z,98397.94
2023-03-05T01:53:00.396Z,98396.06
2023-03-05T01:55:10.906Z,98397.78
2023-03-05T01:57:19.315Z,98394.38
2023-03-05T01:59:29.057Z,98396.91
2023-03-05T02:01:36.686Z,98392.56
2023-03-05T02:03:42.896Z,98392.63
2023-03-05T02:05:47.735Z,98387.44
2023-03-05T02:07:54.547Z,98387.50
2023-03-05T02:09:59.374Z,98379.72
2023-03-05T02:12:04.177Z,98377.97
2023-03-05T02:14:10.571Z,98382.22
2023-03-05T02:16:18.413Z,98379.72
2023-03-05T02:18:24.571Z,98378.03
2023-03-05T02:20:34.802Z,98365.94
2023-03-05T02:22:42.172Z,98367.72
2023-03-05T02:24:47.263Z,98363.41
2023-03-05T02:26:52.090Z,98363.41
2023-03-05T02:29:00.982Z,98361.72
2023-03-05T02:31:12.602Z,98364.25
2023-03-05T02:33:18.346Z,98352.22
2023-03-05T02:35:23.454Z,98356.50
2023-03-05T02:37:28.298Z,98353.13
2023-03-05T02:39:36.080Z,98339.34
2023-03-05T02:41:41.077Z,98341.06
2023-03-05T02:43:46.062Z,98343.63
2023-03-05T02:45:50.897Z,98333.31
2023-03-05T02:47:55.708Z,98330.78
2023-03-05T02:50:00.748Z,98326.38
2023-03-05T02:52:06.784Z,98323.75
2023-03-05T02:54:11.607Z,98329.69
2023-03-05T02:56:19.078Z,98326.25
2023-03-05T02:58:23.945Z,98321.88
2023-03-05T03:00:30.134Z,98320.16
2023-03-05T03:02:34.772Z,98321.00
2023-03-05T03:04:39.612Z,98317.72
2023-03-05T03:06:44.417Z,98319.44
2023-03-05T03:08:49.290Z,98311.72
2023-03-05T03:10:56.489Z,98317.72
2023-03-05T03:13:04.028Z,98314.31
2023-03-05T03:15:10.542Z,98311.81
2023-03-05T03:17:17.163Z,98320.38
2023-03-05T03:19:21.971Z,98314.44
2023-03-05T03:21:28.306Z,98305.84
2023-03-05T03:23:33.630Z,98307.56
2023-03-05T03:25:38.178Z,98299.81
2023-03-05T03:27:42.991Z,98299.88
2023-03-05T03:29:50.508Z,98296.41
2023-03-05T03:31:55.243Z,98301.66
2023-03-05T03:34:00.109Z,98292.28
2023-03-05T03:36:06.130Z,98292.28
2023-03-05T03:38:11.965Z,98300.72
2023-03-05T03:40:17.228Z,98294.75
2023-03-05T03:42:24.579Z,98298.09
2023-03-05T03:44:29.333Z,98292.19
2023-03-05T03:46:36.836Z,98296.50
2023-03-05T03:48:41.658Z,98297.38
2023-03-05T03:50:47.100Z,98299.13
2023-03-05T03:52:51.896Z,98294.00
2023-03-05T03:55:01.781Z,98300.03
2023-03-05T03:57:06.609Z,98294.94
2023-03-05T03:59:11.976Z,98288.91
2023-03-05T04:01:16.756Z,98286.31
2023-03-05T04:03:24.185Z,98283.72
2023-03-05T04:05:29.037Z,98282.75
2023-03-05T04:07:33.920Z,98281.81
2023-03-05T04:09:38.696Z,98285.13
2023-03-05T04:11:43.579Z,98276.44
2023-03-05T04:13:48.356Z,98268.72
2023-03-05T04:15:53.193Z,98272.13
2023-03-05T04:17:58.097Z,98270.44
2023-03-05T04:20:05.870Z,98266.97
2023-03-05T04:22:13.120Z,98263.63
2023-03-05T04:24:18.034Z,98269.59
2023-03-05T04:26:22.788Z,98267.06
2023-03-05T04:28:27.731Z,98268.88
2023-03-05T04:30:32.644Z,98266.44
2023-03-05T04:32:37.707Z,98261.25
2023-03-05T04:34:42.516Z,98269.06
2023-03-05T04:36:50.470Z,98275.06
2023-03-05T04:38:55.368Z,98264.72
2023-03-05T04:41:00.189Z,98269.06
2023-03-05T04:43:05.269Z,98262.16
2023-03-05T04:45:11.421Z,98267.34
2023-03-05T04:47:16.270Z,98258.72
2023-03-05T04:49:21.109Z,98260.47
2023-03-05T04:51:26.101Z,98257.00
2023-03-05T04:53:33.561Z,98258.72
2023-03-05T04:55:38.339Z,98261.22
2023-03-05T04:57:43.466Z,98251.88
2023-03-05T04:59:48.285Z,98260.38
2023-03-05T05:01:53.181Z,98260.34
2023-03-05T05:03:58.000Z,98251.66
2023-03-05T05:06:04.649Z,98247.31
2023-03-05T05:08:09.474Z,98248.91
2023-03-05T05:10:20.982Z,98241.19
2023-03-05T05:12:25.752Z,98250.63
2023-03-05T05:14:30.602Z,98247.38
2023-03-05T05:16:38.470Z,98244.84
2023-03-05T05:18:43.796Z,98238.84
2023-03-05T05:20:48.337Z,98242.38
2023-03-05T05:22:53.139Z,98238.94
2023-03-05T05:24:58.061Z,98245.88
2023-03-05T05:27:05.513Z,98249.31
2023-03-05T05:29:10.418Z,98245.06
2023-03-05T05:31:17.479Z,98247.72
2023-03-05T05:33:22.523Z,98247.56
2023-03-05T05:35:27.417Z,98250.97
2023-03-05T05:37:33.008Z,98244.13
2023-03-05T05:39:38.639Z,98248.56
2023-03-05T05:41:43.512Z,98252.78
2023-03-05T05:43:51.102Z,98252.00
2023-03-05T05:45:55.961Z,98253.75
2023-03-05T05:48:00.828Z,98258.09
2023-03-05T05:50:05.688Z,98254.66
2023-03-05T05:52:11.371Z,98256.31
2023-03-05T05:54:16.611Z,98258.06
2023-03-05T05:56:21.223Z,98260.69
2023-03-05T05:58:26.012Z,98251.38
2023-03-05T06:00:33.459Z,98254.84
2023-03-05T06:02:41.462Z,98258.31
2023-03-05T06:04:46.315Z,98255.75
2023-03-05T06:06:51.251Z,98253.09
2023-03-05T06:08:57.066Z,98254.78
2023-03-05T06:11:01.821Z,98254.66
2023-03-05T06:13:06.696Z,98253.72
2023-03-05T06:15:12.546Z,98252.03
2023-03-05T06:17:29.853Z,98257.22
2023-03-05T06:19:35.833Z,98262.31
2023-03-05T06:21:40.385Z,98260.72
2023-03-05T06:23:45.722Z,98258.28
2023-03-05T06:25:50.794Z,98262.44
2023-03-05T06:27:55.551Z,98260.69
2023-03-05T06:30:00.380Z,98262.44
2023-03-05T06:32:05.255Z,98253.91
2023-03-05T06:34:13.654Z,98255.53
2023-03-05T06:36:20.515Z,98255.50
2023-03-05T06:38:25.607Z,98262.38
2023-03-05T06:40:30.437Z,98253.00
2023-03-05T06:42:36.613Z,98253.78
2023-03-05T06:44:42.063Z,98258.91
2023-03-05T06:46:47.043Z,98254.66
2023-03-05T06:48:52.890Z,98250.41
2023-03-05T06:51:00.566Z,98249.38
2023-03-05T06:53:05.543Z,98259.56
2023-03-05T06:55:11.474Z,98256.19
2023-03-05T06:57:16.431Z,98265.63
2023-03-05T06:59:21.790Z,98260.47
2023-03-05T07:01:26.443Z,98257.00
2023-03-05T07:03:33.872Z,98259.63
2023-03-05T07:05:41.551Z,98254.53
2023-03-05T07:07:48.996Z,98250.22
2023-03-05T07:09:53.879Z,98257.09
2023-03-05T07:11:58.729Z,98258.72
2023-03-05T07:14:04.398Z,98255.34
2023-03-05T07:16:10.954Z,98256.13
2023-03-05T07:18:15.967Z,98252.53
2023-03-05T07:20:21.182Z,98250.84
2023-03-05T07:22:25.890Z,98246.53
2023-03-05T07:24:33.547Z,98243.91
2023-03-05T07:26:38.957Z,98242.16
2023-03-05T07:28:44.557Z,98240.53
2023-03-05T07:30:58.790Z,98234.31
2023-03-05T07:33:03.914Z,98241.09
2023-03-05T07:35:09.366Z,98236.94
2023-03-05T07:37:14.303Z,98239.50
2023-03-05T07:39:19.589Z,98239.41
2023-03-05T07:41:26.798Z,98233.31
2023-03-05T07:43:31.577Z,98234.16
2023-03-05T07:45:36.583Z,98225.53
2023-03-05T07:47:41.475Z,98233.25
2023-03-05T07:49:46.373Z,98221.84
2023-03-05T07:51:51.164Z,98231.22
2023-03-05T07:53:58.492Z,98219.22
2023-03-05T07:56:03.346Z,98228.56
2023-03-05T07:58:10.773Z,98224.28
2023-03-05T08:00:16.839Z,98223.69
2023-03-05T08:02:21.946Z,98221.03
2023-03-05T08:04:26.874Z,98219.16
2023-03-05T08:06:32.022Z,98222.41
2023-03-05T08:08:36.853Z,98214.69
2023-03-05T08:10:41.733Z,98214.91
2023-03-05T08:12:46.530Z,98211.44
2023-03-05T08:14:54.216Z,98213.06
2023-03-05T08:16:58.979Z,98207.91
2023-03-05T08:19:04.406Z,98212.22
2023-03-05T08:21:09.511Z,98203.59
2023-03-05T08:23:15.504Z,98206.91
2023-03-05T08:25:20.657Z,98199.22
2023-03-05T08:27:25.491Z,98198.44
2023-03-05T08:29:30.735Z,98200.13
2023-03-05T08:31:38.205Z,98192.47
2023-03-05T08:33:43.450Z,98196.72
2023-03-05T08:35:48.497Z,98191.66
2023-03-05T08:37:53.432Z,98194.16
2023-03-05T08:39:58.342Z,98189.03
2023-03-05T08:42:03.309Z,98195.22
2023-03-05T08:44:08.078Z,98191.72
2023-03-05T08:46:16.871Z,98189.97
2023-03-05T08:48:24.472Z,98188.22
2023-03-05T08:50:29.336Z,98184.66
2023-03-05T08:52:34.216Z,98176.09
2023-03-05T08:54:39.845Z,98176.09
2023-03-05T08:56:44.691Z,98177.47
2023-03-05T08:58:49.807Z,98173.88
2023-03-05T09:00:54.777Z,98177.91
2023-03-05T09:02:59.976Z,98175.44
2023-03-05T09:05:07.378Z,98173.34
2023-03-05T09:07:13.045Z,98173.28
2023-03-05T09:09:20.785Z,98179.16
2023-03-05T09:11:25.634Z,98173.22
2023-03-05T09:13:30.469Z,98168.03
2023-03-05T09:15:36.845Z,98170.66
2023-03-05T09:17:43.228Z,98171.63
2023-03-05T09:19:48.045Z,98162.22
2023-03-05T09:21:57.111Z,98169.22
2023-03-05T09:24:02.051Z,98161.66
2023-03-05T09:26:08.756Z,98170.09
2023-03-05T09:28:13.560Z,98158.06
2023-03-05T09:30:19.323Z,98159.78
2023-03-05T09:32:24.421Z,98158.00
2023-03-05T09:34:29.244Z,98163.28
2023-03-05T09:36:35.510Z,98165.13
2023-03-05T09:38:42.926Z,98159.19
2023-03-05T09:40:55.449Z,98161.78
2023-03-05T09:43:08.646Z,98162.66
2023-03-05T09:45:23.203Z,98155.66
2023-03-05T09:47:47.285Z,98164.22
2023-03-05T09:50:00.424Z,98154.09
2023-03-05T09:52:10.570Z,98158.56
2023-03-05T09:54:21.924Z,98163.69
2023-03-05T09:56:29.758Z,98153.44
2023-03-05T09:58:38.686Z,98153.31
2023-03-05T10:00:46.778Z,98156.72
2023-03-05T10:02:58.512Z,98158.50
2023-03-05T10:05:13.166Z,98151.47
2023-03-05T10:07:22.980Z,98152.31
2023-03-05T10:09:45.603Z,98149.56
2023-03-05T10:11:56.606Z,98148.53
2023-03-05T10:14:01.558Z,98135.47
2023-03-05T10:16:19.786Z,98138.09
2023-03-05T10:18:35.876Z,98140.69
2023-03-05T10:20:49.520Z,98139.03
2023-03-05T10:23:14.026Z,98138.84
2023-03-05T10:25:29.282Z,98137.31
2023-03-05T10:27:45.964Z,98138.19
2023-03-05T10:30:07.598Z,98125.28
2023-03-05T10:32:28.943Z,98124.28
2023-03-05T10:34:59.861Z,98123.25
2023-03-05T10:37:23.927Z,98121.25
2023-03-05T10:39:59.253Z,98119.34
2023-03-05T10:42:13.941Z,98117.44
2023-03-05T10:44:30.849Z,98117.63
2023-03-05T10:46:40.688Z,98114.19
2023-03-05T10:48:49.936Z,98116.81
2023-03-05T10:50:59.994Z,98111.66
2023-03-05T10:53:16.793Z,98105.63
2023-03-05T10:55:24.468Z,98104.44
2023-03-05T10:57:34.587Z,98099.84
2023-03-05T10:59:39.371Z,98098.09
2023-03-05T11:01:44.747Z,98096.41
2023-03-05T11:03:52.823Z,98092.19
2023-03-05T11:06:03.435Z,98090.44
2023-03-05T11:08:26.975Z,98090.91
2023-03-05T11:10:31.789Z,98080.28
2023-03-05T11:12:40.795Z,98075.13
2023-03-05T11:14:47.787Z,98074.28
2023-03-05T11:16:53.487Z,98075.34
2023-03-05T11:19:21.289Z,98082.34
2023-03-05T11:21:29.315Z,98076.44
2023-03-05T11:23:34.180Z,98072.41
2023-03-05T11:25:55.716Z,98067.91
2023-03-05T11:28:05.470Z,98059.31
2023-03-05T11:30:22.470Z,98054.19
2023-03-05T11:32:29.557Z,98052.22
2023-03-05T11:34:36.093Z,98047.59
2023-03-05T11:36:42.927Z,98047.31
2023-03-05T11:38:50.054Z,98038.69
2023-03-05T11:40:56.450Z,98046.72
2023-03-05T11:43:05.003Z,98046.53
2023-03-05T11:45:18.582Z,98034.41
2023-03-05T11:47:29.349Z,98030.78
2023-03-05T11:49:35.356Z,98031.69
2023-03-05T11:51:46.129Z,98032.41
2023-03-05T11:53:55.650Z,98030.97
2023-03-05T11:56:07.301Z,98034.31
2023-03-05T11:58:28.399Z,98039.00
2023-03-05T12:00:37.932Z,98035.59
2023-03-05T12:02:43.050Z,98037.34
2023-03-05T12:04:48.117Z,98028.06
2023-03-05T12:06:55.228Z,98028.81
2023-03-05T12:09:03.843Z,98028.09
2023-03-05T12:11:17.819Z,98016.72
2023-03-05T12:13:32.172Z,98016.72
2023-03-05T12:16:03.948Z,98008.75
2023-03-05T12:18:18.685Z,98010.31
2023-03-05T12:20:36.545Z,98003.34
2023-03-05T12:22:43.432Z,98002.41
2023-03-05T12:24:48.422Z,97990.66
2023-03-05T12:27:09.955Z,97987.09
2023-03-05T12:29:40.343Z,97983.16
2023-03-05T12:31:45.640Z,97986.47
2023-03-05T12:33:50.174Z,97974.56
2023-03-05T12:35:55.013Z,97977.97
2023-03-05T12:38:25.852Z,97965.25
2023-03-05T12:40:33.319Z,97967.00
2023-03-05T12:42:49.922Z,97970.47
2023-03-05T12:45:24.520Z,97965.00
2023-03-05T12:47:32.050Z,97963.16
2023-03-05T12:49:41.359Z,97966.31
2023-03-05T12:51:47.031Z,97955.19
2023-03-05T12:53:54.313Z,97959.69
2023-03-05T12:56:04.168Z,97955.41
2023-03-05T12:58:16.117Z,97948.94
2023-03-05T13:00:28.536Z,97946.28
2023-03-05T13:02:39.910Z,97945.59
2023-03-05T13:04:48.669Z,97942.69
2023-03-05T13:07:03.442Z,97952.25
2023-03-05T13:09:17.438Z,97944.09
2023-03-05T13:11:25.391Z,97942.38
2023-03-05T13:13:33.908Z,97943.44
2023-03-05T13:15:39.167Z,97948.13
2023-03-05T13:17:53.392Z,97945.31
2023-03-05T13:19:58.702Z,97940.00
2023-03-05T13:22:13.603Z,97937.28
2023-03-05T13:24:22.429Z,97941.75
2023-03-05T13:26:28.313Z,97941.00
2023-03-05T13:28:34.685Z,97935.25
2023-03-05T13:30:39.527Z,97937.84
2023-03-05T13:32:46.926Z,97933.34
2023-03-05T13:34:51.721Z,97940.06
2023-03-05T13:37:02.429Z,97933.19
2023-03-05T13:39:08.339Z,97930.53
2023-03-05T13:41:26.113Z,97932.59
2023-03-05T13:43:31.039Z,97927.50
2023-03-05T13:45:40.125Z,97923.16
2023-03-05T13:47:56.004Z,97918.69
2023-03-05T13:50:01.338Z,97923.81
2023-03-05T13:52:06.596Z,97918.78
2023-03-05T13:54:13.390Z,97920.50
2023-03-05T13:56:20.751Z,97916.16
2023-03-05T13:58:44.413Z,97910.88
2023-03-05T14:00:49.306Z,97914.22
2023-03-05T14:02:59.688Z,97903.50
2023-03-05T14:05:07.058Z,97898.38
2023-03-05T14:07:28.795Z,97900.16
2023-03-05T14:09:46.111Z,97901.09
2023-03-05T14:12:03.582Z,97897.56
2023-03-05T14:14:12.621Z,97893.09
2023-03-05T14:16:28.094Z,97890.00
2023-03-05T14:18:38.809Z,97892.44
2023-03-05T14:21:01.738Z,97885.50
2023-03-05T14:23:28.327Z,97880.47
2023-03-05T14:25:38.657Z,97881.13
2023-03-05T14:27:43.494Z,97875.19
2023-03-05T14:29:49.563Z,97878.69
2023-03-05T14:31:57.352Z,97880.63
2023-03-05T14:34:10.136Z,97874.88
2023-03-05T14:36:16.347Z,97868.88
2023-03-05T14:38:25.077Z,97864.97
2023-03-05T14:40:33.741Z,97869.09
2023-03-05T14:42:39.654Z,97868.22
2023-03-05T14:44:44.749Z,97869.19
2023-03-05T14:46:52.154Z,97864.94
2023-03-05T14:48:57.172Z,97859.84
2023-03-05T14:51:06.056Z,97854.38
2023-03-05T14:53:16.259Z,97852.41
2023-03-05T14:55:23.373Z,97851.00
2023-03-05T14:57:31.068Z,97852.97
2023-03-05T14:59:36.080Z,97844.19
2023-03-05T15:01:40.882Z,97844.91
2023-03-05T15:03:45.853Z,97843.84
2023-03-05T15:05:53.867Z,97834.66
2023-03-05T15:08:01.374Z,97838.25
2023-03-05T15:10:08.799Z,97828.69
2023-03-05T15:12:16.227Z,97825.81
2023-03-05T15:14:21.043Z,97829.13
2023-03-05T15:16:26.204Z,97827.59
2023-03-05T15:18:31.069Z,97817.59
2023-03-05T15:20:39.922Z,97815.91
2023-03-05T15:22:44.764Z,97814.06
2023-03-05T15:24:52.137Z,97814.72
2023-03-05T15:26:56.957Z,97804.88
2023-03-05T15:29:01.748Z,97808.78
2023-03-05T15:31:08.728Z,97806.81
2023-03-05T15:33:18.351Z,97810.34
2023-03-05T15:35:23.939Z,97800.13
2023-03-05T15:37:28.886Z,97800.50
2023-03-05T15:39:33.768Z,97803.56
2023-03-05T15:41:41.526Z,97801.34
2023-03-05T15:43:46.287Z,97798.00
2023-03-05T15:45:51.047Z,97789.53
2023-03-05T15:47:56.858Z,97791.28
2023-03-05T15:50:01.636Z,97787.75
2023-03-05T15:52:06.480Z,97781.88
2023-03-05T15:54:12.162Z,97780.03
2023-03-05T15:56:18.405Z,97782.28
2023-03-05T15:58:25.784Z,97785.78
2023-03-05T16:00:33.799Z,97779.03
2023-03-05T16:02:38.596Z,97772.97
2023-03-05T16:04:43.514Z,97767.81
2023-03-05T16:06:49.859Z,97773.63
2023-03-05T16:08:58.949Z,97769.97
2023-03-05T16:11:04.110Z,97765.72
2023-03-05T16:13:11.432Z,97758.13
2023-03-05T16:15:22.671Z,97758.06
2023-03-05T16:17:29.472Z,97758.91
2023-03-05T16:19:38.516Z,97760.56
2023-03-05T16:21:43.738Z,97765.25
2023-03-05T16:23:49.887Z,97759.00
2023-03-05T16:25:54.962Z,97759.59
2023-03-05T16:27:59.866Z,97758.91
2023-03-05T16:30:05.004Z,97752.66
2023-03-05T16:32:12.461Z,97751.53
2023-03-05T16:34:18.830Z,97745.63
2023-03-05T16:36:26.987Z,97745.88
2023-03-05T16:38:31.828Z,97736.34
2023-03-05T16:41:06.057Z,97739.72
2023-03-05T16:43:04.470Z,97746.59
2023-03-05T16:45:11.047Z,97740.88
2023-03-05T16:47:18.904Z,97728.00
2023-03-05T16:49:24.372Z,97734.16
2023-03-05T16:51:29.695Z,97738.38
2023-03-05T16:53:34.388Z,97742.44
2023-03-05T16:55:39.950Z,97732.91
2023-03-05T16:57:44.811Z,97744.22
2023-03-05T16:59:49.627Z,97741.06
2023-03-05T17:01:54.715Z,97742.91
2023-03-05T17:04:03.052Z,97737.97
2023-03-05T17:06:11.857Z,97736.13
2023-03-05T17:08:16.638Z,97730.75
2023-03-05T17:10:21.470Z,97733.22
2023-03-05T17:12:26.397Z,97730.47
2023-03-05T17:14:31.699Z,97733.16
2023-03-05T17:16:36.588Z,97732.88
2023-03-05T17:18:41.689Z,97727.09
2023-03-05T17:20:49.150Z,97731.66
2023-03-05T17:22:55.248Z,97724.69
2023-03-05T17:25:00.042Z,97728.19
2023-03-05T17:27:04.901Z,97735.91
2023-03-05T17:29:10.406Z,97728.94
2023-03-05T17:31:16.185Z,97726.31
2023-03-05T17:33:21.101Z,97727.09
2023-03-05T17:35:26.250Z,97732.22
2023-03-05T17:37:33.445Z,97733.25
2023-03-05T17:39:38.238Z,97723.09
2023-03-05T17:41:43.154Z,97728.16
2023-03-05T17:43:48.294Z,97727.28
2023-03-05T17:45:52.920Z,97725.75
2023-03-05T17:47:58.789Z,97725.63
2023-03-05T17:50:04.468Z,97724.50
2023-03-05T17:52:09.264Z,97720.88
2023-03-05T17:54:16.832Z,97719.06
2023-03-05T17:56:24.154Z,97719.75
2023-03-05T17:58:30.004Z,97717.06
2023-03-05T18:00:36.472Z,97715.34
2023-03-05T18:02:41.335Z,97715.06
2023-03-05T18:04:48.058Z,97708.97
2023-03-05T18:06:52.837Z,97718.22
2023-03-05T18:08:57.610Z,97717.50
2023-03-05T18:11:05.009Z,97714.88
2023-03-05T18:13:09.944Z,97721.31
2023-03-05T18:15:19.180Z,97727.47
2023-03-05T18:17:25.664Z,97722.50
2023-03-05T18:19:30.485Z,97725.91
2023-03-05T18:21:35.497Z,97717.13
2023-03-05T18:23:40.333Z,97723.06
2023-03-05T18:25:45.396Z,97715.22
2023-03-05T18:27:52.765Z,97718.53
2023-03-05T18:29:57.706Z,97711.72
2023-03-05T18:32:03.247Z,97716.91
2023-03-05T18:34:08.016Z,97707.34
2023-03-05T18:36:14.624Z,97707.44
2023-03-05T18:38:19.379Z,97708.38
2023-03-05T18:40:27.676Z,97705.84
2023-03-05T18:42:32.791Z,97698.91
2023-03-05T18:44:40.542Z,97704.25
2023-03-05T18:46:45.325Z,97697.28
2023-03-05T18:48:50.563Z,97709.34
2023-03-05T18:50:55.778Z,97702.53
2023-03-05T18:53:00.544Z,97696.53
2023-03-05T18:55:05.353Z,97706.00
2023-03-05T18:57:10.150Z,97700.94
2023-03-05T18:59:14.905Z,97703.69
2023-03-05T19:01:22.902Z,97708.97
2023-03-05T19:03:27.766Z,97708.13
2023-03-05T19:05:33.368Z,97699.47
2023-03-05T19:07:38.304Z,97701.03
2023-03-05T19:09:53.237Z,97703.63
2023-03-05T19:11:58.090Z,97706.28
2023-03-05T19:14:02.877Z,97690.81
2023-03-05T19:16:12.770Z,97694.31
2023-03-05T19:18:21.288Z,97690.16
2023-03-05T19:20:26.187Z,97700.31
2023-03-05T19:22:36.295Z,97695.91
2023-03-05T19:24:41.404Z,97691.09
2023-03-05T19:26:48.034Z,97690.31
2023-03-05T19:28:52.847Z,97681.63
2023-03-05T19:30:57.732Z,97691.72
2023-03-05T19:33:03.784Z,97682.19
2023-03-05T19:35:16.676Z,97682.06
2023-03-05T19:37:21.488Z,97679.63
2023-03-05T19:39:26.375Z,97685.72
2023-03-05T19:41:32.791Z,97686.59
2023-03-05T19:43:37.794Z,97689.09
2023-03-05T19:45:42.811Z,97684.94
2023-03-05T19:47:47.589Z,97679.84
2023-03-05T19:49:52.827Z,97679.63
2023-03-05T19:52:04.301Z,97680.59
2023-03-05T19:54:09.645Z,97682.34
2023-03-05T19:56:17.688Z,97681.44
2023-03-05T19:58:22.504Z,97679.59
2023-03-05T20:00:30.319Z,97676.25
2023-03-05T20:02:36.277Z,97673.38
2023-03-05T20:04:41.047Z,97667.13
2023-03-05T20:06:45.869Z,97660.06
2023-03-05T20:08:53.459Z,97659.06
2023-03-05T20:10:58.243Z,97650.38
2023-03-05T20:13:03.259Z,97647.72
2023-03-05T20:15:09.202Z,97651.97
2023-03-05T20:17:14.071Z,97651.13
2023-03-05T20:19:21.977Z,97653.75
2023-03-05T20:21:32.051Z,97651.06
2023-03-05T20:23:36.865Z,97660.59
2023-03-05T20:25:44.273Z,97653.72
2023-03-05T20:27:49.064Z,97658.78
2023-03-05T20:29:53.863Z,97657.03
2023-03-05T20:31:59.261Z,97651.97
2023-03-05T20:34:04.129Z,97645.97
2023-03-05T20:36:09.796Z,97652.78
2023-03-05T20:38:25.313Z,97650.22
2023-03-05T20:40:30.210Z,97653.66
2023-03-05T20:42:40.214Z,97646.75
2023-03-05T20:44:45.349Z,97639.81
2023-03-05T20:47:10.041Z,97638.16
2023-03-05T20:49:14.910Z,97640.06
2023-03-05T20:51:22.830Z,97635.75
2023-03-05T20:53:27.762Z,97634.91
2023-03-05T20:55:35.399Z,97634.91
2023-03-05T20:57:44.184Z,97630.59
2023-03-05T20:59:48.996Z,97628.03
2023-03-05T21:01:53.796Z,97629.78
2023-03-05T21:03:59.910Z,97629.75
2023-03-05T21:06:05.636Z,97627.19
2023-03-05T21:08:10.519Z,97630.69
2023-03-05T21:10:16.563Z,97626.47
2023-03-05T21:12:21.353Z,97624.66
2023-03-05T21:14:28.806Z,97621.22
2023-03-05T21:16:35.381Z,97619.50
2023-03-05T21:18:40.349Z,97621.31
2023-03-05T21:20:45.205Z,97621.31
2023-03-05T21:22:50.531Z,97623.06
2023-03-05T21:25:03.371Z,97615.41
2023-03-05T21:27:08.203Z,97609.47
2023-03-05T21:29:13.091Z,97612.84
2023-03-05T21:31:23.161Z,97611.16
2023-03-05T21:33:30.038Z,97608.63
2023-03-05T21:35:35.981Z,97604.38
2023-03-05T21:37:42.677Z,97600.94
2023-03-05T21:39:47.524Z,97600.94
2023-03-05T21:41:52.907Z,97597.47
2023-03-05T21:43:58.257Z,97589.69
2023-03-05T21:46:04.425Z,97594.06
2023-03-05T21:48:12.487Z,97591.47
2023-03-05T21:50:18.737Z,97594.00
2023-03-05T21:52:23.502Z,97591.38
2023-03-05T21:54:29.137Z,97587.03
2023-03-05T21:56:34.008Z,97587.81
2023-03-05T21:58:38.892Z,97581.78
2023-03-05T22:00:43.840Z,97585.22
2023-03-05T22:02:48.713Z,97573.34
2023-03-05T22:04:56.233Z,97575.09
2023-03-05T22:07:01.127Z,97576.84
2023-03-05T22:09:06.216Z,97572.50
2023-03-05T22:11:12.546Z,97567.25
2023-03-05T22:13:20.101Z,97569.72
2023-03-05T22:15:25.443Z,97565.72
2023-03-05T22:17:29.948Z,97562.50
2023-03-05T22:19:34.800Z,97553.91
2023-03-05T22:21:42.249Z,97552.91
2023-03-05T22:23:46.980Z,97551.97
2023-03-05T22:25:58.852Z,97561.34
2023-03-05T22:28:04.145Z,97557.97
2023-03-05T22:30:10.746Z,97557.06
2023-03-05T22:32:15.699Z,97549.28
2023-03-05T22:34:20.483Z,97550.06
2023-03-05T22:36:25.849Z,97553.59
2023-03-05T22:38:33.238Z,97548.44
2023-03-05T22:40:38.524Z,97548.47
2023-03-05T22:42:44.292Z,97540.75
2023-03-05T22:44:49.213Z,97534.66
2023-03-05T22:46:54.071Z,97533.72
2023-03-05T22:48:58.912Z,97529.53
2023-03-05T22:51:03.829Z,97539.81
2023-03-05T22:53:08.634Z,97539.75
2023-03-05T22:55:18.509Z,97532.81
2023-03-05T22:57:23.360Z,97531.03
2023-03-05T22:59:28.253Z,97524.34
2023-03-05T23:01:33.074Z,97529.44
2023-03-05T23:03:38.070Z,97526.84
2023-03-05T23:05:43.410Z,97520.94
2023-03-05T23:07:49.396Z,97512.47
2023-03-05T23:09:55.238Z,97510.81
2023-03-05T23:12:02.628Z,97512.59
2023-03-05T23:14:07.460Z,97502.28
2023-03-05T23:16:12.532Z,97510.03
2023-03-05T23:18:17.540Z,97500.63
2023-03-05T23:20:24.672Z,97504.94
2023-03-05T23:22:29.521Z,97494.72
2023-03-05T23:24:34.524Z,97495.56
2023-03-05T23:26:39.280Z,97497.22
2023-03-05T23:28:46.846Z,97487.84
2023-03-05T23:30:51.714Z,97491.34
2023-03-05T23:32:58.933Z,97485.28
2023-03-05T23:35:01.143Z,97481.16
2023-03-05T23:37:06.712Z,97486.28
2023-03-05T23:39:11.460Z,97480.38
2023-03-05T23:41:16.273Z,97484.78
2023-03-05T23:43:21.621Z,97485.63
2023-03-05T23:45:29.784Z,97484.63
2023-03-05T23:47:36.702Z,97479.44
2023-03-05T23:49:41.668Z,97485.38
2023-03-05T23:51:46.524Z,97480.28
2023-03-05T23:53:51.299Z,97481.22
2023-03-05T23:55:56.971Z,97477.75
2023-03-05T23:58:01.873Z,97475.16
